createdAt,value
2022-12-20T00:00:27.437Z,52.52
2022-12-20T00:01:27.536Z,51.07
2022-12-20T00:02:27.568Z,51.55
2022-12-20T00:03:27.486Z,51.92
2022-12-20T00:04:27.423Z,50.87
2022-12-20T00:05:27.383Z,51.21
2022-12-20T00:06:27.413Z,53.50
2022-12-20T00:07:27.389Z,53.43
2022-12-20T00:08:27.392Z,53.08
2022-12-20T00:09:27.378Z,52.87
2022-12-20T00:10:27.376Z,58.63
2022-12-20T00:11:27.368Z,55.76
2022-12-20T00:12:27.386Z,53.84
2022-12-20T00:13:27.365Z,53.27
2022-12-20T00:14:27.356Z,54.34
2022-12-20T00:15:27.322Z,55.23
2022-12-20T00:16:27.376Z,54.12
2022-12-20T00:17:27.363Z,54.54
2022-12-20T00:18:27.335Z,54.20
2022-12-20T00:19:27.311Z,51.73
2022-12-20T00:20:27.305Z,52.43
2022-12-20T00:21:27.308Z,53.75
2022-12-20T00:22:27.301Z,53.72
2022-12-20T00:23:27.278Z,54.52
2022-12-20T00:24:27.312Z,53.11
2022-12-20T00:25:27.307Z,53.88
2022-12-20T00:26:27.273Z,54.24
2022-12-20T00:27:27.263Z,53.42
2022-12-20T00:28:27.291Z,53.11
2022-12-20T00:29:27.244Z,53.14
2022-12-20T00:30:27.278Z,54.91
2022-12-20T00:31:27.358Z,55.51
2022-12-20T00:32:27.232Z,55.53
2022-12-20T00:33:27.220Z,54.77
2022-12-20T00:34:27.232Z,54.27
2022-12-20T00:35:27.255Z,53.26
2022-12-20T00:36:27.293Z,54.17
2022-12-20T00:37:27.189Z,54.28
2022-12-20T00:38:27.248Z,55.87
2022-12-20T00:39:27.182Z,55.29
2022-12-20T00:40:27.172Z,54.63
2022-12-20T00:41:27.165Z,53.14
2022-12-20T00:42:27.206Z,52.97
2022-12-20T00:43:27.167Z,52.84
2022-12-20T00:44:27.177Z,53.68
2022-12-20T00:45:27.148Z,54.01
2022-12-20T00:46:27.197Z,53.46
2022-12-20T00:47:27.148Z,54.45
2022-12-20T00:48:27.141Z,53.80
2022-12-20T00:49:27.109Z,59.66
2022-12-20T00:50:27.127Z,58.77
2022-12-20T00:51:27.108Z,53.88
2022-12-20T00:52:27.098Z,54.33
2022-12-20T00:53:27.111Z,54.14
2022-12-20T00:54:27.124Z,52.98
2022-12-20T00:55:27.068Z,56.44
2022-12-20T00:56:27.082Z,60.34
2022-12-20T00:57:27.056Z,53.84
2022-12-20T00:58:27.069Z,54.74
2022-12-20T00:59:27.068Z,53.48
2022-12-20T01:00:27.072Z,52.27
2022-12-20T01:01:27.223Z,52.90
2022-12-20T01:02:27.299Z,52.96
2022-12-20T01:03:27.190Z,55.01
2022-12-20T01:04:27.092Z,55.71
2022-12-20T01:05:27.008Z,53.43
2022-12-20T01:06:27.034Z,53.15
2022-12-20T01:07:27.028Z,53.12
2022-12-20T01:08:26.998Z,51.02
2022-12-20T01:09:27.007Z,51.65
2022-12-20T01:10:26.992Z,51.28
2022-12-20T01:11:26.973Z,50.61
2022-12-20T01:12:26.979Z,52.29
2022-12-20T01:13:26.969Z,49.12
2022-12-20T01:14:26.955Z,49.80
2022-12-20T01:15:26.955Z,49.96
2022-12-20T01:16:27.082Z,48.86
2022-12-20T01:17:26.926Z,53.48
2022-12-20T01:18:26.938Z,52.78
2022-12-20T01:19:26.929Z,52.80
2022-12-20T01:20:26.911Z,50.50
2022-12-20T01:21:26.928Z,50.25
2022-12-20T01:22:26.978Z,51.69
2022-12-20T01:23:26.883Z,49.50
2022-12-20T01:24:26.909Z,48.91
2022-12-20T01:25:26.883Z,48.96
2022-12-20T01:26:26.906Z,47.98
2022-12-20T01:27:26.881Z,50.12
2022-12-20T01:28:26.875Z,48.63
2022-12-20T01:29:26.849Z,48.72
2022-12-20T01:30:26.861Z,48.57
2022-12-20T01:31:26.948Z,48.97
2022-12-20T01:32:26.868Z,50.27
2022-12-20T01:33:26.873Z,49.06
2022-12-20T01:34:26.826Z,49.56
2022-12-20T01:35:26.805Z,49.55
2022-12-20T01:36:27.041Z,50.14
2022-12-20T01:37:26.800Z,50.45
2022-12-20T01:38:26.812Z,50.66
2022-12-20T01:39:26.792Z,50.68
2022-12-20T01:40:26.802Z,51.11
2022-12-20T01:41:26.792Z,49.19
2022-12-20T01:42:26.777Z,48.71
2022-12-20T01:43:26.751Z,49.03
2022-12-20T01:44:26.783Z,50.14
2022-12-20T01:45:27.000Z,50.14
2022-12-20T01:46:26.811Z,55.84
2022-12-20T01:47:26.792Z,55.06
2022-12-20T01:48:26.747Z,47.87
2022-12-20T01:49:26.735Z,49.13
2022-12-20T01:50:26.725Z,49.12
2022-12-20T01:51:26.709Z,48.43
2022-12-20T01:52:26.703Z,49.03
2022-12-20T01:53:26.699Z,47.96
2022-12-20T01:54:26.677Z,48.91
2022-12-20T01:55:26.705Z,48.42
2022-12-20T01:56:26.666Z,51.03
2022-12-20T01:57:26.678Z,50.65
2022-12-20T01:58:26.680Z,50.72
2022-12-20T01:59:26.656Z,48.63
2022-12-20T02:00:27.536Z,49.47
2022-12-20T02:01:26.801Z,50.47
2022-12-20T02:02:26.805Z,49.64
2022-12-20T02:03:26.699Z,50.08
2022-12-20T02:04:26.661Z,49.25
2022-12-20T02:05:26.607Z,50.60
2022-12-20T02:06:26.624Z,49.60
2022-12-20T02:07:26.624Z,51.45
2022-12-20T02:08:26.593Z,58.70
2022-12-20T02:09:26.592Z,58.59
2022-12-20T02:10:26.606Z,54.49
2022-12-20T02:11:26.565Z,52.86
2022-12-20T02:12:26.589Z,52.92
2022-12-20T02:13:26.561Z,51.70
2022-12-20T02:14:26.563Z,50.65
2022-12-20T02:15:26.582Z,51.18
2022-12-20T02:16:26.596Z,51.27
2022-12-20T02:17:26.539Z,52.73
2022-12-20T02:18:26.531Z,51.77
2022-12-20T02:19:26.524Z,52.23
2022-12-20T02:20:26.554Z,51.39
2022-12-20T02:21:26.533Z,51.30
2022-12-20T02:22:26.510Z,52.55
2022-12-20T02:23:26.514Z,60.07
2022-12-20T02:24:26.501Z,50.33
2022-12-20T02:25:26.471Z,50.74
2022-12-20T02:26:26.485Z,50.00
2022-12-20T02:27:26.476Z,51.04
2022-12-20T02:28:26.469Z,50.50
2022-12-20T02:29:26.456Z,50.21
2022-12-20T02:30:37.100Z,51.12
2022-12-20T02:31:26.507Z,51.02
2022-12-20T02:34:52.911Z,52.78
2022-12-20T02:36:01.157Z,52.85
2022-12-20T02:36:52.903Z,52.89
2022-12-20T02:37:52.895Z,52.12
2022-12-20T02:38:52.890Z,51.24
2022-12-20T02:39:52.876Z,52.05
2022-12-20T02:40:52.970Z,52.26
2022-12-20T02:41:52.873Z,52.42
2022-12-20T02:42:54.644Z,52.89
2022-12-20T02:43:53.857Z,51.68
2022-12-20T02:44:52.842Z,51.35
2022-12-20T02:45:52.914Z,51.07
2022-12-20T02:46:52.831Z,51.77
2022-12-20T02:47:52.821Z,49.36
2022-12-20T02:48:52.814Z,50.00
2022-12-20T02:49:52.836Z,48.13
2022-12-20T02:50:52.923Z,48.73
2022-12-20T02:51:52.831Z,49.00
2022-12-20T02:52:52.786Z,49.32
2022-12-20T02:53:52.841Z,49.50
2022-12-20T02:54:52.779Z,48.51
2022-12-20T02:55:52.794Z,49.20
2022-12-20T02:56:52.776Z,49.66
2022-12-20T02:57:58.004Z,49.39
2022-12-20T02:58:52.756Z,49.70
2022-12-20T02:59:52.750Z,50.34
2022-12-20T03:00:52.728Z,49.16
2022-12-20T03:01:52.910Z,49.79
2022-12-20T03:02:52.844Z,49.87
2022-12-20T03:03:52.738Z,50.44
2022-12-20T03:04:52.727Z,52.45
2022-12-20T03:05:52.714Z,51.36
2022-12-20T03:06:52.691Z,55.32
2022-12-20T03:07:52.739Z,60.53
2022-12-20T03:08:52.712Z,51.06
2022-12-20T03:09:52.696Z,52.45
2022-12-20T03:10:52.759Z,50.74
2022-12-20T03:11:52.665Z,52.20
2022-12-20T03:12:52.670Z,53.23
2022-12-20T03:13:52.670Z,52.80
2022-12-20T03:14:52.648Z,55.54
2022-12-20T03:15:52.702Z,55.25
2022-12-20T03:16:52.711Z,53.89
2022-12-20T03:17:52.656Z,56.58
2022-12-20T03:18:52.637Z,55.36
2022-12-20T03:19:52.617Z,52.29
2022-12-20T03:20:52.731Z,55.92
2022-12-20T03:21:52.613Z,55.26
2022-12-20T03:22:52.649Z,55.31
2022-12-20T03:23:52.646Z,54.86
2022-12-20T03:24:52.587Z,54.58
2022-12-20T03:25:52.619Z,55.45
2022-12-20T03:26:52.590Z,53.48
2022-12-20T03:27:52.576Z,53.49
2022-12-20T03:28:52.555Z,51.92
2022-12-20T03:29:52.583Z,53.19
2022-12-20T03:30:52.666Z,53.03
2022-12-20T03:31:52.556Z,52.16
2022-12-20T03:32:52.596Z,53.00
2022-12-20T03:33:52.535Z,52.51
2022-12-20T03:34:52.541Z,50.64
2022-12-20T03:36:03.355Z,51.62
2022-12-20T03:36:52.500Z,53.18
2022-12-20T03:37:52.509Z,52.89
2022-12-20T03:38:52.496Z,54.13
2022-12-20T03:39:52.518Z,53.91
2022-12-20T03:40:52.478Z,54.33
2022-12-20T03:41:52.486Z,51.63
2022-12-20T03:42:52.454Z,52.99
2022-12-20T03:43:52.495Z,53.70
2022-12-20T03:44:53.146Z,51.89
2022-12-20T03:45:52.551Z,53.28
2022-12-20T03:46:52.480Z,58.66
2022-12-20T03:47:52.432Z,56.02
2022-12-20T03:48:52.416Z,60.46
2022-12-20T03:49:52.433Z,54.41
2022-12-20T03:50:52.415Z,53.62
2022-12-20T03:51:52.419Z,53.35
2022-12-20T03:52:52.401Z,53.37
2022-12-20T03:53:52.415Z,52.55
2022-12-20T03:54:52.378Z,52.96
2022-12-20T03:55:52.427Z,53.13
2022-12-20T03:56:52.376Z,54.31
2022-12-20T03:57:52.362Z,54.10
2022-12-20T03:58:52.368Z,55.06
2022-12-20T03:59:52.351Z,56.23
2022-12-20T04:00:52.340Z,54.21
2022-12-20T04:01:52.537Z,54.17
2022-12-20T04:02:52.638Z,61.71
2022-12-20T04:03:52.427Z,57.51
2022-12-20T04:04:52.350Z,55.73
2022-12-20T04:05:52.316Z,54.83
2022-12-20T04:06:52.314Z,56.74
2022-12-20T04:07:52.303Z,56.15
2022-12-20T04:08:52.303Z,57.10
2022-12-20T04:09:52.292Z,57.49
2022-12-20T04:10:52.276Z,55.65
2022-12-20T04:11:52.299Z,55.48
2022-12-20T04:12:52.274Z,52.71
2022-12-20T04:13:52.279Z,51.62
2022-12-20T04:14:52.237Z,53.35
2022-12-20T04:15:56.800Z,53.67
2022-12-20T04:16:53.247Z,53.20
2022-12-20T04:17:52.247Z,53.71
2022-12-20T04:18:52.229Z,52.71
2022-12-20T04:19:52.233Z,52.58
2022-12-20T04:20:52.200Z,51.88
2022-12-20T04:21:52.221Z,54.13
2022-12-20T04:22:52.190Z,53.77
2022-12-20T04:23:52.200Z,55.13
2022-12-20T04:24:52.186Z,55.34
2022-12-20T04:25:52.257Z,53.45
2022-12-20T04:26:52.185Z,54.90
2022-12-20T04:27:52.195Z,54.62
2022-12-20T04:28:52.153Z,52.47
2022-12-20T04:29:52.160Z,53.47
2022-12-20T04:30:52.184Z,52.42
2022-12-20T04:31:52.286Z,52.70
2022-12-20T04:32:52.143Z,53.28
2022-12-20T04:33:52.160Z,51.94
2022-12-20T04:34:52.118Z,58.58
2022-12-20T04:35:52.122Z,57.19
2022-12-20T04:36:52.094Z,53.96
2022-12-20T04:37:52.112Z,54.45
2022-12-20T04:38:52.100Z,54.76
2022-12-20T04:39:52.096Z,55.34
2022-12-20T04:40:52.078Z,55.61
2022-12-20T04:41:52.079Z,54.59
2022-12-20T04:42:52.050Z,55.11
2022-12-20T04:43:52.120Z,54.25
2022-12-20T04:44:52.048Z,54.76
2022-12-20T04:45:52.050Z,54.54
2022-12-20T04:46:52.102Z,54.43
2022-12-20T04:47:52.039Z,55.56
2022-12-20T04:48:57.743Z,56.12
2022-12-20T04:49:53.038Z,55.10
2022-12-20T04:50:52.004Z,58.56
2022-12-20T04:51:52.021Z,57.87
2022-12-20T04:52:52.020Z,59.20
2022-12-20T04:53:51.993Z,60.05
2022-12-20T04:54:51.981Z,58.71
2022-12-20T04:55:52.024Z,58.43
2022-12-20T04:56:52.073Z,57.24
2022-12-20T04:57:52.008Z,59.02
2022-12-20T04:58:51.969Z,57.37
2022-12-20T04:59:51.980Z,58.41
2022-12-20T05:00:51.936Z,56.39
2022-12-20T05:01:52.054Z,56.96
2022-12-20T05:02:52.240Z,57.89
2022-12-20T05:03:52.050Z,57.23
2022-12-20T05:04:51.936Z,55.48
2022-12-20T05:08:18.306Z,55.75
2022-12-20T05:09:18.296Z,56.62
2022-12-20T05:10:18.420Z,57.55
2022-12-20T05:11:18.282Z,57.54
2022-12-20T05:12:18.260Z,59.22
2022-12-20T05:13:18.275Z,58.09
2022-12-20T05:14:18.266Z,58.40
2022-12-20T05:15:18.331Z,57.27
2022-12-20T05:16:18.461Z,56.76
2022-12-20T05:17:18.339Z,55.74
2022-12-20T05:18:18.224Z,54.43
2022-12-20T05:19:18.242Z,54.13
2022-12-20T05:20:18.223Z,55.82
2022-12-20T05:21:18.250Z,56.37
2022-12-20T05:22:18.220Z,56.73
2022-12-20T05:23:18.202Z,56.18
2022-12-20T05:26:44.601Z,55.68
2022-12-20T05:27:44.595Z,57.65
2022-12-20T05:28:44.562Z,57.14
2022-12-20T05:29:44.549Z,58.04
2022-12-20T05:30:44.584Z,56.98
2022-12-20T05:31:44.716Z,56.94
2022-12-20T05:32:44.530Z,55.47
2022-12-20T05:33:44.584Z,56.77
2022-12-20T05:34:44.511Z,57.00
2022-12-20T05:35:44.516Z,58.54
2022-12-20T05:36:44.588Z,62.65
2022-12-20T05:37:44.523Z,56.62
2022-12-20T05:38:44.488Z,57.32
2022-12-20T05:39:44.483Z,58.14
2022-12-20T05:40:44.496Z,58.79
2022-12-20T05:41:44.523Z,58.51
2022-12-20T05:42:44.484Z,58.82
2022-12-20T05:43:44.470Z,57.87
2022-12-20T05:44:44.437Z,57.65
2022-12-20T05:45:44.463Z,57.95
2022-12-20T05:46:44.597Z,60.81
2022-12-20T05:47:44.446Z,62.61
2022-12-20T05:48:44.449Z,58.80
2022-12-20T05:49:44.441Z,57.76
2022-12-20T05:50:44.423Z,58.47
2022-12-20T05:51:44.426Z,58.04
2022-12-20T05:52:44.392Z,58.09
2022-12-20T05:53:44.412Z,58.76
2022-12-20T05:54:44.393Z,59.03
2022-12-20T05:55:44.394Z,57.32
2022-12-20T05:56:44.379Z,58.69
2022-12-20T05:57:44.378Z,59.95
2022-12-20T05:58:44.365Z,59.03
2022-12-20T05:59:44.390Z,58.45
2022-12-20T06:00:44.377Z,57.30
2022-12-20T06:01:44.495Z,58.92
2022-12-20T06:02:55.586Z,59.68
2022-12-20T06:03:44.534Z,58.55
2022-12-20T06:04:44.318Z,59.20
2022-12-20T06:05:44.330Z,59.00
2022-12-20T06:06:44.307Z,57.99
2022-12-20T06:07:44.311Z,58.94
2022-12-20T06:08:44.350Z,58.51
2022-12-20T06:09:44.308Z,58.69
2022-12-20T06:10:44.269Z,59.05
2022-12-20T06:11:44.288Z,57.81
2022-12-20T06:12:44.277Z,56.86
2022-12-20T06:13:44.275Z,58.11
2022-12-20T06:14:44.261Z,58.14
2022-12-20T06:15:44.259Z,57.81
2022-12-20T06:16:44.267Z,57.45
2022-12-20T06:17:44.310Z,58.62
2022-12-20T06:18:44.259Z,56.55
2022-12-20T06:19:44.240Z,57.53
2022-12-20T06:20:44.322Z,58.90
2022-12-20T06:21:44.206Z,58.35
2022-12-20T06:22:44.209Z,58.32
2022-12-20T06:23:44.205Z,58.71
2022-12-20T06:24:48.258Z,56.62
2022-12-20T06:25:44.197Z,56.93
2022-12-20T06:26:44.187Z,58.33
2022-12-20T06:27:44.166Z,56.84
2022-12-20T06:28:44.225Z,57.32
2022-12-20T06:29:44.155Z,58.67
2022-12-20T06:31:07.870Z,58.68
2022-12-20T06:31:44.232Z,58.22
2022-12-20T06:32:44.151Z,57.82
2022-12-20T06:33:44.139Z,58.41
2022-12-20T06:34:44.154Z,59.39
2022-12-20T06:35:44.149Z,56.36
2022-12-20T06:36:44.132Z,57.74
2022-12-20T06:37:44.117Z,57.80
2022-12-20T06:38:44.118Z,58.50
2022-12-20T06:39:44.095Z,60.42
2022-12-20T06:40:44.101Z,57.52
2022-12-20T06:41:44.085Z,57.37
2022-12-20T06:43:09.832Z,57.12
2022-12-20T06:43:44.054Z,56.32
2022-12-20T06:44:44.862Z,56.61
2022-12-20T06:45:44.218Z,55.70
2022-12-20T06:46:44.184Z,58.41
2022-12-20T06:47:44.032Z,56.25
2022-12-20T06:48:44.027Z,56.83
2022-12-20T06:49:44.020Z,57.24
2022-12-20T06:50:44.062Z,57.04
2022-12-20T06:51:44.002Z,55.35
2022-12-20T06:52:44.039Z,56.29
2022-12-20T06:53:44.032Z,55.39
2022-12-20T06:54:44.000Z,55.03
2022-12-20T06:55:43.985Z,56.25
2022-12-20T06:56:43.997Z,56.56
2022-12-20T06:57:44.005Z,56.41
2022-12-20T06:58:43.975Z,54.77
2022-12-20T06:59:43.953Z,56.61
2022-12-20T07:00:44.008Z,56.50
2022-12-20T07:01:44.217Z,57.99
2022-12-20T07:02:44.140Z,55.69
2022-12-20T07:03:43.979Z,56.91
2022-12-20T07:04:43.947Z,56.41
2022-12-20T07:05:43.915Z,57.51
2022-12-20T07:06:43.954Z,58.00
2022-12-20T07:07:45.401Z,57.72
2022-12-20T07:08:43.911Z,57.33
2022-12-20T07:09:43.927Z,59.47
2022-12-20T07:10:43.909Z,57.55
2022-12-20T07:11:43.883Z,57.79
2022-12-20T07:12:47.763Z,58.41
2022-12-20T07:13:43.860Z,57.52
2022-12-20T07:14:43.901Z,59.03
2022-12-20T07:15:43.841Z,58.50
2022-12-20T07:16:44.004Z,56.67
2022-12-20T07:17:43.823Z,59.86
2022-12-20T07:18:43.885Z,59.12
2022-12-20T07:19:50.324Z,57.29
2022-12-20T07:20:43.839Z,58.30
2022-12-20T07:21:43.811Z,58.57
2022-12-20T07:22:43.834Z,59.83
2022-12-20T07:23:43.785Z,58.53
2022-12-20T07:24:43.847Z,58.87
2022-12-20T07:25:43.768Z,60.29
2022-12-20T07:26:43.772Z,58.52
2022-12-20T07:27:43.879Z,57.50
2022-12-20T07:28:43.760Z,57.66
2022-12-20T07:29:43.790Z,59.83
2022-12-20T07:30:43.761Z,58.65
2022-12-20T07:31:43.992Z,59.65
2022-12-20T07:32:43.754Z,59.32
2022-12-20T07:33:43.715Z,57.62
2022-12-20T07:34:43.750Z,58.47
2022-12-20T07:35:43.741Z,59.95
2022-12-20T07:36:43.716Z,59.70
2022-12-20T07:37:43.704Z,59.56
2022-12-20T07:38:43.765Z,57.05
2022-12-20T07:39:43.683Z,59.04
2022-12-20T07:40:43.715Z,57.54
2022-12-20T07:41:43.679Z,59.09
2022-12-20T07:42:48.565Z,59.28
2022-12-20T07:43:44.714Z,58.63
2022-12-20T07:44:43.679Z,57.84
2022-12-20T07:45:43.799Z,56.27
2022-12-20T07:46:43.750Z,57.26
2022-12-20T07:47:43.722Z,57.65
2022-12-20T07:48:43.658Z,57.95
2022-12-20T07:49:43.663Z,57.15
2022-12-20T07:50:43.629Z,57.64
2022-12-20T07:51:43.601Z,56.80
2022-12-20T07:52:43.625Z,57.69
2022-12-20T07:53:43.604Z,58.39
2022-12-20T07:54:43.612Z,57.85
2022-12-20T07:55:43.605Z,57.48
2022-12-20T07:56:43.653Z,58.85
2022-12-20T07:57:43.592Z,60.57
2022-12-20T07:58:43.574Z,59.70
2022-12-20T07:59:43.571Z,58.10
2022-12-20T08:00:43.558Z,56.91
2022-12-20T08:01:43.792Z,57.53
2022-12-20T08:02:43.730Z,58.92
2022-12-20T08:03:43.655Z,59.23
2022-12-20T08:04:43.533Z,60.49
2022-12-20T08:05:43.512Z,60.18
2022-12-20T08:06:43.749Z,58.73
2022-12-20T08:07:43.511Z,62.26
2022-12-20T08:08:43.487Z,62.48
2022-12-20T08:09:43.494Z,58.76
2022-12-20T08:10:43.553Z,59.93
2022-12-20T08:11:43.518Z,60.20
2022-12-20T08:12:43.495Z,60.26
2022-12-20T08:13:46.590Z,60.19
2022-12-20T08:14:43.457Z,59.49
2022-12-20T08:15:43.466Z,59.02
2022-12-20T08:16:43.548Z,58.91
2022-12-20T08:17:43.465Z,59.71
2022-12-20T08:18:43.432Z,60.15
2022-12-20T08:23:40.016Z,59.40
2022-12-20T08:24:40.023Z,58.73
2022-12-20T08:25:42.065Z,59.21
2022-12-20T08:26:40.057Z,58.89
2022-12-20T08:27:40.010Z,57.90
2022-12-20T08:28:39.985Z,57.41
2022-12-20T08:29:40.017Z,59.13
2022-12-20T08:30:40.070Z,59.32
2022-12-20T08:31:45.892Z,58.20
2022-12-20T08:32:41.048Z,57.87
2022-12-20T08:33:39.958Z,57.81
2022-12-20T08:34:39.968Z,57.73
2022-12-20T08:35:39.929Z,57.80
2022-12-20T08:36:39.926Z,55.06
2022-12-20T08:37:40.144Z,56.07
2022-12-20T08:38:39.994Z,55.15
2022-12-20T08:39:39.916Z,54.85
2022-12-20T08:40:39.926Z,55.00
2022-12-20T08:41:39.886Z,55.19
2022-12-20T08:42:39.925Z,54.89
2022-12-20T08:43:39.928Z,55.64
2022-12-20T08:44:39.897Z,57.41
2022-12-20T08:45:40.073Z,63.25
2022-12-20T08:46:39.934Z,56.85
2022-12-20T08:47:39.848Z,55.46
2022-12-20T08:48:39.898Z,56.34
2022-12-20T08:49:45.630Z,60.32
2022-12-20T08:50:40.854Z,56.88
2022-12-20T08:51:39.980Z,57.65
2022-12-20T08:52:39.850Z,56.12
2022-12-20T08:53:39.868Z,55.98
2022-12-20T08:54:40.017Z,56.36
2022-12-20T08:55:39.824Z,54.41
2022-12-20T08:56:39.815Z,56.51
2022-12-20T08:57:39.807Z,56.24
2022-12-20T08:58:39.867Z,56.35
2022-12-20T08:59:39.789Z,56.26
2022-12-20T09:00:39.778Z,56.01
2022-12-20T09:01:39.869Z,56.43
2022-12-20T09:02:39.982Z,58.39
2022-12-20T09:03:39.877Z,57.74
2022-12-20T09:04:39.785Z,58.17
2022-12-20T09:05:39.740Z,61.07
2022-12-20T09:06:39.784Z,58.66
2022-12-20T09:07:39.724Z,56.47
2022-12-20T09:08:39.727Z,58.56
2022-12-20T09:09:39.717Z,56.25
2022-12-20T09:10:39.731Z,57.09
2022-12-20T09:11:39.743Z,59.59
2022-12-20T09:12:39.744Z,57.89
2022-12-20T09:13:43.957Z,56.81
2022-12-20T09:14:39.741Z,58.49
2022-12-20T09:15:39.771Z,61.41
2022-12-20T09:16:39.711Z,57.86
2022-12-20T09:17:39.665Z,57.90
2022-12-20T09:18:39.699Z,58.10
2022-12-20T09:19:39.650Z,57.77
2022-12-20T09:20:39.653Z,61.83
2022-12-20T09:21:39.674Z,58.20
2022-12-20T09:22:39.645Z,57.40
2022-12-20T09:23:39.653Z,57.95
2022-12-20T09:24:39.638Z,58.26
2022-12-20T09:25:39.611Z,60.78
2022-12-20T09:26:39.632Z,57.86
2022-12-20T09:27:39.625Z,57.59
2022-12-20T09:28:39.612Z,56.33
2022-12-20T09:29:39.598Z,55.50
2022-12-20T09:30:39.696Z,57.35
2022-12-20T09:31:39.639Z,57.23
2022-12-20T09:32:39.588Z,56.89
2022-12-20T09:33:39.570Z,57.39
2022-12-20T09:34:39.581Z,56.07
2022-12-20T09:35:39.580Z,56.40
2022-12-20T09:36:39.556Z,57.97
2022-12-20T09:37:39.653Z,56.58
2022-12-20T09:38:39.535Z,56.78
2022-12-20T09:39:39.556Z,56.27
2022-12-20T09:40:39.534Z,57.22
2022-12-20T09:41:39.524Z,57.30
2022-12-20T09:42:39.539Z,56.63
2022-12-20T09:43:39.490Z,56.25
2022-12-20T09:44:39.511Z,55.48
2022-12-20T09:45:39.515Z,56.14
2022-12-20T09:46:39.647Z,56.48
2022-12-20T09:47:39.500Z,56.80
2022-12-20T09:48:39.472Z,57.39
2022-12-20T09:49:39.504Z,56.68
2022-12-20T09:50:39.458Z,57.93
2022-12-20T09:51:39.455Z,59.91
2022-12-20T09:52:39.459Z,60.54
2022-12-20T09:53:39.433Z,63.33
2022-12-20T09:54:39.453Z,60.93
2022-12-20T09:55:39.438Z,60.43
2022-12-20T09:56:39.418Z,57.79
2022-12-20T09:57:39.407Z,58.16
2022-12-20T09:58:39.415Z,58.16
2022-12-20T09:59:43.256Z,57.69
2022-12-20T10:00:40.442Z,57.88
2022-12-20T10:01:40.552Z,58.69
2022-12-20T10:03:02.184Z,58.02
2022-12-20T10:03:40.585Z,56.73
2022-12-20T10:04:39.646Z,58.38
2022-12-20T10:05:41.697Z,57.45
2022-12-20T10:06:39.406Z,58.15
2022-12-20T10:07:39.381Z,57.09
2022-12-20T10:08:39.340Z,57.16
2022-12-20T10:09:39.355Z,56.34
2022-12-20T10:10:39.333Z,55.86
2022-12-20T10:11:46.239Z,62.31
2022-12-20T10:12:40.327Z,75.22
2022-12-20T10:13:39.301Z,75.23
2022-12-20T10:14:39.334Z,64.27
2022-12-20T10:15:39.340Z,57.62
2022-12-20T10:16:39.315Z,58.20
2022-12-20T10:17:39.299Z,56.34
2022-12-20T10:18:39.320Z,56.84
2022-12-20T10:19:39.267Z,56.62
2022-12-20T10:20:39.267Z,56.21
2022-12-20T10:21:39.260Z,54.15
2022-12-20T10:22:39.251Z,54.52
2022-12-20T10:23:39.286Z,54.51
2022-12-20T10:24:39.251Z,55.38
2022-12-20T10:25:39.228Z,56.18
2022-12-20T10:26:39.233Z,54.06
2022-12-20T10:27:39.229Z,55.66
2022-12-20T10:28:39.208Z,56.65
2022-12-20T10:29:39.202Z,55.71
2022-12-20T10:30:39.201Z,54.36
2022-12-20T10:31:39.285Z,55.46
2022-12-20T10:32:39.193Z,55.96
2022-12-20T10:33:39.169Z,55.07
2022-12-20T10:34:45.115Z,57.72
2022-12-20T10:35:40.166Z,63.36
2022-12-20T10:36:39.159Z,59.25
2022-12-20T10:37:41.373Z,54.78
2022-12-20T10:38:39.148Z,54.71
2022-12-20T10:39:39.133Z,54.70
2022-12-20T10:41:18.694Z,54.56
2022-12-20T10:41:40.109Z,55.53
2022-12-20T10:42:39.129Z,54.89
2022-12-20T10:43:39.118Z,54.30
2022-12-20T10:44:39.096Z,55.21
2022-12-20T10:45:39.107Z,54.92
2022-12-20T10:46:39.202Z,56.28
2022-12-20T10:47:39.116Z,54.08
2022-12-20T10:48:39.146Z,54.90
2022-12-20T10:49:39.059Z,54.34
2022-12-20T10:50:39.085Z,53.70
2022-12-20T10:51:39.077Z,54.75
2022-12-20T10:52:39.064Z,55.19
2022-12-20T10:53:39.033Z,55.23
2022-12-20T10:54:39.067Z,55.27
2022-12-20T10:55:39.616Z,56.78
2022-12-20T10:57:00.021Z,54.45
2022-12-20T10:57:39.010Z,56.84
2022-12-20T10:58:39.004Z,61.18
2022-12-20T10:59:39.043Z,57.40
2022-12-20T11:00:38.991Z,56.13
2022-12-20T11:01:39.140Z,56.28
2022-12-20T11:02:42.326Z,56.28
2022-12-20T11:03:39.176Z,56.80
2022-12-20T11:04:38.989Z,55.49
2022-12-20T11:05:38.977Z,58.54
2022-12-20T11:06:38.977Z,58.17
2022-12-20T11:07:38.950Z,59.29
2022-12-20T11:08:46.745Z,58.09
2022-12-20T11:09:39.991Z,57.57
2022-12-20T11:10:38.999Z,58.47
2022-12-20T11:11:38.945Z,58.92
2022-12-20T11:12:38.951Z,62.73
2022-12-20T11:13:38.945Z,63.89
2022-12-20T11:14:40.028Z,60.79
2022-12-20T11:15:38.891Z,60.20
2022-12-20T11:16:39.046Z,58.87
2022-12-20T11:17:38.894Z,57.19
2022-12-20T11:18:38.882Z,56.57
2022-12-20T11:19:38.903Z,57.92
2022-12-20T11:20:38.877Z,55.69
2022-12-20T11:21:38.890Z,56.83
2022-12-20T11:22:38.881Z,56.26
2022-12-20T11:23:38.839Z,57.76
2022-12-20T11:24:38.890Z,58.03
2022-12-20T11:25:38.832Z,59.71
2022-12-20T11:26:38.826Z,56.89
2022-12-20T11:27:38.963Z,55.35
2022-12-20T11:28:38.845Z,57.36
2022-12-20T11:29:38.801Z,58.34
2022-12-20T11:30:38.805Z,54.69
2022-12-20T11:31:38.893Z,58.22
2022-12-20T11:32:43.072Z,56.04
2022-12-20T11:33:39.768Z,56.15
2022-12-20T11:34:38.798Z,57.77
2022-12-20T11:35:38.783Z,56.87
2022-12-20T11:36:38.762Z,56.10
2022-12-20T11:37:38.756Z,57.94
2022-12-20T11:38:38.753Z,59.34
2022-12-20T11:39:38.739Z,56.17
2022-12-20T11:40:38.721Z,56.57
2022-12-20T11:41:38.752Z,58.09
2022-12-20T11:42:38.729Z,55.66
2022-12-20T11:44:00.925Z,59.40
2022-12-20T11:44:45.681Z,57.42
2022-12-20T11:45:39.734Z,58.41
2022-12-20T11:46:38.741Z,58.76
2022-12-20T11:47:38.686Z,57.76
2022-12-20T11:48:38.672Z,58.02
2022-12-20T11:49:38.672Z,56.54
2022-12-20T11:50:38.662Z,55.16
2022-12-20T11:51:38.681Z,56.42
2022-12-20T11:52:38.653Z,55.36
2022-12-20T11:53:38.664Z,58.79
2022-12-20T11:54:38.660Z,58.35
2022-12-20T11:55:38.625Z,58.94
2022-12-20T11:56:43.875Z,60.39
2022-12-20T11:58:02.115Z,54.62
2022-12-20T11:58:39.589Z,54.19
2022-12-20T11:59:38.604Z,53.99
2022-12-20T12:00:38.573Z,54.21
2022-12-20T12:01:38.815Z,54.84
2022-12-20T12:02:38.809Z,54.57
2022-12-20T12:03:38.575Z,58.82
2022-12-20T12:04:38.558Z,58.27
2022-12-20T12:05:38.587Z,54.90
2022-12-20T12:06:38.530Z,56.76
2022-12-20T12:07:38.564Z,58.97
2022-12-20T12:08:38.532Z,54.48
2022-12-20T12:09:38.528Z,56.41
2022-12-20T12:10:38.524Z,54.15
2022-12-20T12:12:08.928Z,54.22
2022-12-20T12:12:39.494Z,54.54
2022-12-20T12:13:38.675Z,54.94
2022-12-20T12:14:38.490Z,56.39
2022-12-20T12:15:38.483Z,54.41
2022-12-20T12:16:38.682Z,59.27
2022-12-20T12:17:38.481Z,56.81
2022-12-20T12:18:38.448Z,59.54
2022-12-20T12:19:38.597Z,58.48
2022-12-20T12:20:38.462Z,54.57
2022-12-20T12:21:38.469Z,55.14
2022-12-20T12:22:38.440Z,55.22
2022-12-20T12:23:38.435Z,56.14
2022-12-20T12:24:38.407Z,56.85
2022-12-20T12:25:38.445Z,55.59
2022-12-20T12:26:38.426Z,55.64
2022-12-20T12:27:38.390Z,54.96
2022-12-20T12:28:38.395Z,56.54
2022-12-20T12:29:38.378Z,55.59
2022-12-20T12:30:38.376Z,56.01
2022-12-20T12:31:38.452Z,56.40
2022-12-20T12:32:38.362Z,57.54
2022-12-20T12:33:39.248Z,60.22
2022-12-20T12:34:38.488Z,58.13
2022-12-20T12:35:38.345Z,57.42
2022-12-20T12:36:38.337Z,57.78
2022-12-20T12:37:38.334Z,56.74
2022-12-20T12:38:38.316Z,55.57
2022-12-20T12:39:38.324Z,54.49
2022-12-20T12:40:38.323Z,56.91
2022-12-20T12:41:38.320Z,55.90
2022-12-20T12:42:38.334Z,55.45
2022-12-20T12:43:38.294Z,53.91
2022-12-20T12:44:38.277Z,54.71
2022-12-20T12:45:38.332Z,53.61
2022-12-20T12:46:38.385Z,53.16
2022-12-20T12:47:38.273Z,53.41
2022-12-20T12:48:38.241Z,53.25
2022-12-20T12:49:38.253Z,53.97
2022-12-20T12:50:38.247Z,54.10
2022-12-20T12:51:38.299Z,53.03
2022-12-20T12:52:38.224Z,53.52
2022-12-20T12:53:38.252Z,54.30
2022-12-20T12:54:38.227Z,54.82
2022-12-20T12:55:38.228Z,54.47
2022-12-20T12:56:46.552Z,56.68
2022-12-20T12:57:39.181Z,55.11
2022-12-20T12:58:42.728Z,53.98
2022-12-20T12:59:39.187Z,54.32
2022-12-20T13:01:10.366Z,54.91
2022-12-20T13:01:38.348Z,55.20
2022-12-20T13:02:38.209Z,55.02
2022-12-20T13:03:38.285Z,55.49